Terminal Aerodrome Forecast
Issued by NWS Wichita, KS

Home | Current Version | Previous Version | Text Only | Print | Product List | Glossary On
Versions: 1 2 3 4 5 6 7 8 9 10 11 12 13 14 15 16 17
510
FTUS43 KICT 191120
TAFICT
TAF
KICT 191120Z 1912/2012 13004KT P6SM VCTS BKN080CB
     FM191400 15005KT P6SM FEW080
     FM191800 16008KT P6SM SKC=

USA.gov is the U.S. government's official web portal to all federal, state and local government web resources and services.